sensor_id;sensor_type;location;lat;lon;timestamp;P1;durP1;ratioP1;P2;durP2;ratioP2
7432;SDS011;32233;49.500;7.764;2023-02-13T00:01:11;44.40;;;22.70;;
7432;SDS011;32233;49.500;7.764;2023-02-13T00:03:38;41.10;;;21.33;;
7432;SDS011;32233;49.500;7.764;2023-02-13T00:06:04;43.17;;;22.17;;
7432;SDS011;32233;49.500;7.764;2023-02-13T00:08:31;41.60;;;22.07;;
7432;SDS011;32233;49.500;7.764;2023-02-13T00:10:57;42.87;;;21.97;;
7432;SDS011;32233;49.500;7.764;2023-02-13T00:13:24;43.27;;;20.73;;
7432;SDS011;32233;49.500;7.764;2023-02-13T00:15:58;43.93;;;21.20;;
7432;SDS011;32233;49.500;7.764;2023-02-13T00:18:26;38.00;;;21.17;;
7432;SDS011;32233;49.500;7.764;2023-02-13T00:20:57;42.93;;;21.50;;
7432;SDS011;32233;49.500;7.764;2023-02-13T00:23:24;45.00;;;21.53;;
7432;SDS011;32233;49.500;7.764;2023-02-13T00:25:51;43.23;;;21.77;;
7432;SDS011;32233;49.500;7.764;2023-02-13T00:28:17;42.47;;;22.00;;
7432;SDS011;32233;49.500;7.764;2023-02-13T00:30:44;44.67;;;22.17;;
7432;SDS011;32233;49.500;7.764;2023-02-13T00:33:12;39.57;;;21.43;;
7432;SDS011;32233;49.500;7.764;2023-02-13T00:35:38;41.33;;;21.10;;
7432;SDS011;32233;49.500;7.764;2023-02-13T00:38:05;38.87;;;20.57;;
7432;SDS011;32233;49.500;7.764;2023-02-13T00:40:31;39.43;;;21.30;;
7432;SDS011;32233;49.500;7.764;2023-02-13T00:42:58;38.60;;;20.20;;
7432;SDS011;32233;49.500;7.764;2023-02-13T00:45:24;40.27;;;19.87;;
7432;SDS011;32233;49.500;7.764;2023-02-13T00:47:51;36.87;;;19.97;;
7432;SDS011;32233;49.500;7.764;2023-02-13T00:50:19;41.37;;;20.37;;
7432;SDS011;32233;49.500;7.764;2023-02-13T00:52:45;36.33;;;19.37;;
7432;SDS011;32233;49.500;7.764;2023-02-13T00:55:12;37.30;;;19.50;;
7432;SDS011;32233;49.500;7.764;2023-02-13T00:57:38;40.10;;;20.03;;
7432;SDS011;32233;49.500;7.764;2023-02-13T01:00:05;38.83;;;19.57;;
7432;SDS011;32233;49.500;7.764;2023-02-13T01:02:32;36.07;;;18.97;;
7432;SDS011;32233;49.500;7.764;2023-02-13T01:05:01;35.87;;;18.80;;
7432;SDS011;32233;49.500;7.764;2023-02-13T01:07:28;37.30;;;19.57;;
7432;SDS011;32233;49.500;7.764;2023-02-13T01:09:55;34.60;;;19.00;;
7432;SDS011;32233;49.500;7.764;2023-02-13T01:12:21;32.73;;;17.30;;
7432;SDS011;32233;49.500;7.764;2023-02-13T01:14:48;33.03;;;18.20;;
7432;SDS011;32233;49.500;7.764;2023-02-13T01:17:16;33.83;;;17.70;;
7432;SDS011;32233;49.500;7.764;2023-02-13T01:19:42;36.47;;;19.10;;
7432;SDS011;32233;49.500;7.764;2023-02-13T01:22:09;36.33;;;18.30;;
7432;SDS011;32233;49.500;7.764;2023-02-13T01:24:35;34.17;;;17.63;;
7432;SDS011;32233;49.500;7.764;2023-02-13T01:27:02;35.43;;;19.07;;
7432;SDS011;32233;49.500;7.764;2023-02-13T01:29:28;38.93;;;19.43;;
7432;SDS011;32233;49.500;7.764;2023-02-13T01:31:55;36.40;;;18.37;;
7432;SDS011;32233;49.500;7.764;2023-02-13T01:34:25;34.77;;;18.13;;
7432;SDS011;32233;49.500;7.764;2023-02-13T01:36:51;38.03;;;19.20;;
7432;SDS011;32233;49.500;7.764;2023-02-13T01:39:18;36.93;;;18.97;;
7432;SDS011;32233;49.500;7.764;2023-02-13T01:41:45;35.67;;;20.20;;
7432;SDS011;32233;49.500;7.764;2023-02-13T01:47:14;36.53;;;17.80;;
7432;SDS011;32233;49.500;7.764;2023-02-13T01:49:46;36.97;;;18.27;;
7432;SDS011;32233;49.500;7.764;2023-02-13T01:52:14;35.60;;;19.63;;
7432;SDS011;32233;49.500;7.764;2023-02-13T01:54:42;35.77;;;18.90;;
7432;SDS011;32233;49.500;7.764;2023-02-13T01:57:14;36.57;;;19.03;;
7432;SDS011;32233;49.500;7.764;2023-02-13T01:59:49;37.60;;;19.30;;
7432;SDS011;32233;49.500;7.764;2023-02-13T02:02:20;35.67;;;19.00;;
7432;SDS011;32233;49.500;7.764;2023-02-13T02:04:48;35.97;;;19.40;;
7432;SDS011;32233;49.500;7.764;2023-02-13T02:07:22;37.03;;;19.93;;
7432;SDS011;32233;49.500;7.764;2023-02-13T02:09:52;33.90;;;18.17;;
7432;SDS011;32233;49.500;7.764;2023-02-13T02:12:25;35.77;;;17.93;;
7432;SDS011;32233;49.500;7.764;2023-02-13T02:14:58;35.53;;;18.03;;
7432;SDS011;32233;49.500;7.764;2023-02-13T02:17:30;32.97;;;18.07;;
7432;SDS011;32233;49.500;7.764;2023-02-13T02:23:18;33.20;;;17.77;;
7432;SDS011;32233;49.500;7.764;2023-02-13T02:25:57;35.00;;;17.43;;
7432;SDS011;32233;49.500;7.764;2023-02-13T02:32:02;34.90;;;17.00;;
7432;SDS011;32233;49.500;7.764;2023-02-13T02:34:36;29.90;;;15.87;;
7432;SDS011;32233;49.500;7.764;2023-02-13T02:48:25;28.60;;;16.10;;
7432;SDS011;32233;49.500;7.764;2023-02-13T02:51:23;33.57;;;16.57;;
7432;SDS011;32233;49.500;7.764;2023-02-13T02:56:56;29.67;;;16.10;;
7432;SDS011;32233;49.500;7.764;2023-02-13T02:59:31;27.30;;;16.60;;
7432;SDS011;32233;49.500;7.764;2023-02-13T03:02:17;30.57;;;16.23;;
7432;SDS011;32233;49.500;7.764;2023-02-13T03:05:02;30.37;;;15.70;;
7432;SDS011;32233;49.500;7.764;2023-02-13T03:07:48;34.37;;;16.97;;
7432;SDS011;32233;49.500;7.764;2023-02-13T03:10:16;30.37;;;15.97;;
7432;SDS011;32233;49.500;7.764;2023-02-13T03:13:42;30.77;;;16.20;;
7432;SDS011;32233;49.500;7.764;2023-02-13T03:16:14;34.50;;;16.93;;
7432;SDS011;32233;49.500;7.764;2023-02-13T03:19:04;33.50;;;16.13;;
7432;SDS011;32233;49.500;7.764;2023-02-13T03:21:58;34.63;;;17.57;;
7432;SDS011;32233;49.500;7.764;2023-02-13T03:45:07;30.10;;;16.70;;
7432;SDS011;32233;49.500;7.764;2023-02-13T03:48:13;29.50;;;16.00;;
7432;SDS011;32233;49.500;7.764;2023-02-13T03:51:00;31.53;;;16.17;;
7432;SDS011;32233;49.500;7.764;2023-02-13T03:53:28;30.43;;;15.73;;
7432;SDS011;32233;49.500;7.764;2023-02-13T03:55:58;33.03;;;16.10;;
7432;SDS011;32233;49.500;7.764;2023-02-13T03:58:48;29.30;;;14.33;;
7432;SDS011;32233;49.500;7.764;2023-02-13T04:01:35;29.27;;;15.07;;
7432;SDS011;32233;49.500;7.764;2023-02-13T04:06:45;29.87;;;15.93;;
7432;SDS011;32233;49.500;7.764;2023-02-13T04:09:13;28.73;;;15.80;;
7432;SDS011;32233;49.500;7.764;2023-02-13T04:11:47;31.70;;;16.33;;
7432;SDS011;32233;49.500;7.764;2023-02-13T04:14:26;33.13;;;17.37;;
7432;SDS011;32233;49.500;7.764;2023-02-13T04:17:04;36.03;;;16.50;;
7432;SDS011;32233;49.500;7.764;2023-02-13T04:19:39;30.67;;;15.73;;
7432;SDS011;32233;49.500;7.764;2023-02-13T04:22:06;32.87;;;16.77;;
7432;SDS011;32233;49.500;7.764;2023-02-13T04:24:33;29.13;;;16.13;;
7432;SDS011;32233;49.500;7.764;2023-02-13T04:26:59;34.87;;;16.83;;
7432;SDS011;32233;49.500;7.764;2023-02-13T04:29:27;37.33;;;18.13;;
7432;SDS011;32233;49.500;7.764;2023-02-13T04:31:53;31.33;;;16.93;;
7432;SDS011;32233;49.500;7.764;2023-02-13T04:34:20;34.33;;;17.00;;
7432;SDS011;32233;49.500;7.764;2023-02-13T04:36:47;30.73;;;16.27;;
7432;SDS011;32233;49.500;7.764;2023-02-13T04:39:13;33.43;;;17.43;;
7432;SDS011;32233;49.500;7.764;2023-02-13T04:41:40;30.47;;;17.20;;
7432;SDS011;32233;49.500;7.764;2023-02-13T04:44:06;31.37;;;17.83;;
7432;SDS011;32233;49.500;7.764;2023-02-13T04:46:33;28.70;;;16.30;;
7432;SDS011;32233;49.500;7.764;2023-02-13T04:48:59;29.20;;;17.17;;
7432;SDS011;32233;49.500;7.764;2023-02-13T04:51:26;29.10;;;16.53;;
7432;SDS011;32233;49.500;7.764;2023-02-13T04:53:52;33.20;;;16.90;;
7432;SDS011;32233;49.500;7.764;2023-02-13T04:56:19;31.30;;;16.40;;
7432;SDS011;32233;49.500;7.764;2023-02-13T04:58:45;30.67;;;15.57;;
7432;SDS011;32233;49.500;7.764;2023-02-13T05:01:15;30.20;;;15.70;;
7432;SDS011;32233;49.500;7.764;2023-02-13T05:03:43;30.37;;;15.90;;
7432;SDS011;32233;49.500;7.764;2023-02-13T05:06:09;25.70;;;15.10;;
7432;SDS011;32233;49.500;7.764;2023-02-13T05:08:36;25.30;;;14.63;;
7432;SDS011;32233;49.500;7.764;2023-02-13T05:11:02;29.23;;;14.90;;
7432;SDS011;32233;49.500;7.764;2023-02-13T05:13:29;27.37;;;15.07;;
7432;SDS011;32233;49.500;7.764;2023-02-13T05:15:56;26.27;;;14.73;;
7432;SDS011;32233;49.500;7.764;2023-02-13T05:18:22;27.67;;;14.87;;
7432;SDS011;32233;49.500;7.764;2023-02-13T05:20:49;26.17;;;13.77;;
7432;SDS011;32233;49.500;7.764;2023-02-13T05:23:36;22.17;;;13.30;;
7432;SDS011;32233;49.500;7.764;2023-02-13T05:26:02;28.17;;;13.93;;
7432;SDS011;32233;49.500;7.764;2023-02-13T05:28:29;24.60;;;13.77;;
7432;SDS011;32233;49.500;7.764;2023-02-13T05:31:14;23.23;;;13.03;;
7432;SDS011;32233;49.500;7.764;2023-02-13T05:33:41;25.33;;;14.37;;
7432;SDS011;32233;49.500;7.764;2023-02-13T05:36:08;25.67;;;13.50;;
7432;SDS011;32233;49.500;7.764;2023-02-13T05:38:34;23.17;;;13.37;;
7432;SDS011;32233;49.500;7.764;2023-02-13T05:41:01;22.47;;;13.17;;
7432;SDS011;32233;49.500;7.764;2023-02-13T05:43:28;25.33;;;13.37;;
7432;SDS011;32233;49.500;7.764;2023-02-13T05:46:04;22.90;;;12.30;;
7432;SDS011;32233;49.500;7.764;2023-02-13T05:48:32;26.03;;;13.87;;
7432;SDS011;32233;49.500;7.764;2023-02-13T05:50:59;22.97;;;13.17;;
7432;SDS011;32233;49.500;7.764;2023-02-13T05:53:26;24.60;;;14.33;;
7432;SDS011;32233;49.500;7.764;2023-02-13T05:55:53;21.93;;;12.60;;
7432;SDS011;32233;49.500;7.764;2023-02-13T05:58:19;23.93;;;12.93;;
7432;SDS011;32233;49.500;7.764;2023-02-13T06:00:46;26.23;;;13.23;;
7432;SDS011;32233;49.500;7.764;2023-02-13T06:03:13;22.77;;;13.53;;
7432;SDS011;32233;49.500;7.764;2023-02-13T06:05:40;27.20;;;14.63;;
7432;SDS011;32233;49.500;7.764;2023-02-13T06:08:06;25.23;;;13.30;;
7432;SDS011;32233;49.500;7.764;2023-02-13T06:10:33;23.90;;;13.80;;
7432;SDS011;32233;49.500;7.764;2023-02-13T06:13:00;27.53;;;14.20;;
7432;SDS011;32233;49.500;7.764;2023-02-13T06:15:27;26.50;;;14.07;;
7432;SDS011;32233;49.500;7.764;2023-02-13T06:17:53;25.77;;;13.80;;
7432;SDS011;32233;49.500;7.764;2023-02-13T06:20:20;25.43;;;13.73;;
7432;SDS011;32233;49.500;7.764;2023-02-13T06:22:47;24.63;;;13.87;;
7432;SDS011;32233;49.500;7.764;2023-02-13T06:25:16;25.37;;;13.50;;
7432;SDS011;32233;49.500;7.764;2023-02-13T06:27:42;25.60;;;13.60;;
7432;SDS011;32233;49.500;7.764;2023-02-13T06:30:09;24.90;;;13.27;;
7432;SDS011;32233;49.500;7.764;2023-02-13T06:32:36;23.63;;;12.77;;
7432;SDS011;32233;49.500;7.764;2023-02-13T06:35:03;22.90;;;13.40;;
7432;SDS011;32233;49.500;7.764;2023-02-13T06:37:31;23.23;;;12.90;;
7432;SDS011;32233;49.500;7.764;2023-02-13T06:39:57;26.73;;;13.90;;
7432;SDS011;32233;49.500;7.764;2023-02-13T06:42:24;26.20;;;14.17;;
7432;SDS011;32233;49.500;7.764;2023-02-13T06:44:51;24.53;;;14.10;;
7432;SDS011;32233;49.500;7.764;2023-02-13T06:47:17;27.50;;;14.80;;
7432;SDS011;32233;49.500;7.764;2023-02-13T06:49:44;26.37;;;14.13;;
7432;SDS011;32233;49.500;7.764;2023-02-13T06:52:10;27.13;;;14.60;;
7432;SDS011;32233;49.500;7.764;2023-02-13T06:54:37;28.00;;;14.70;;
7432;SDS011;32233;49.500;7.764;2023-02-13T06:57:14;27.80;;;14.77;;
7432;SDS011;32233;49.500;7.764;2023-02-13T06:59:41;32.07;;;16.77;;
7432;SDS011;32233;49.500;7.764;2023-02-13T07:02:09;28.70;;;16.23;;
7432;SDS011;32233;49.500;7.764;2023-02-13T07:04:36;26.83;;;16.27;;
7432;SDS011;32233;49.500;7.764;2023-02-13T07:07:03;27.63;;;15.57;;
7432;SDS011;32233;49.500;7.764;2023-02-13T07:09:31;27.57;;;15.77;;
7432;SDS011;32233;49.500;7.764;2023-02-13T07:12:01;27.50;;;15.03;;
7432;SDS011;32233;49.500;7.764;2023-02-13T07:14:29;27.60;;;15.70;;
7432;SDS011;32233;49.500;7.764;2023-02-13T07:16:56;27.80;;;16.03;;
7432;SDS011;32233;49.500;7.764;2023-02-13T07:19:24;27.17;;;14.77;;
7432;SDS011;32233;49.500;7.764;2023-02-13T07:21:51;28.30;;;14.87;;
7432;SDS011;32233;49.500;7.764;2023-02-13T07:24:19;23.40;;;14.00;;
7432;SDS011;32233;49.500;7.764;2023-02-13T07:29:38;25.73;;;14.23;;
7432;SDS011;32233;49.500;7.764;2023-02-13T07:32:04;24.87;;;14.60;;
7432;SDS011;32233;49.500;7.764;2023-02-13T07:34:32;30.07;;;15.87;;
7432;SDS011;32233;49.500;7.764;2023-02-13T07:36:58;29.57;;;14.73;;
7432;SDS011;32233;49.500;7.764;2023-02-13T07:39:25;25.47;;;14.77;;
7432;SDS011;32233;49.500;7.764;2023-02-13T07:41:51;24.37;;;14.47;;
7432;SDS011;32233;49.500;7.764;2023-02-13T07:44:24;25.30;;;13.77;;
7432;SDS011;32233;49.500;7.764;2023-02-13T07:46:50;27.87;;;15.80;;
7432;SDS011;32233;49.500;7.764;2023-02-13T07:49:17;28.50;;;16.37;;
7432;SDS011;32233;49.500;7.764;2023-02-13T07:51:43;25.17;;;15.20;;
7432;SDS011;32233;49.500;7.764;2023-02-13T07:54:10;29.97;;;17.03;;
7432;SDS011;32233;49.500;7.764;2023-02-13T07:56:36;27.10;;;16.67;;
7432;SDS011;32233;49.500;7.764;2023-02-13T07:59:03;30.73;;;17.10;;
7432;SDS011;32233;49.500;7.764;2023-02-13T08:01:32;30.33;;;17.97;;
7432;SDS011;32233;49.500;7.764;2023-02-13T08:03:58;31.63;;;17.03;;
7432;SDS011;32233;49.500;7.764;2023-02-13T08:06:25;29.07;;;17.00;;
7432;SDS011;32233;49.500;7.764;2023-02-13T08:08:51;28.70;;;17.20;;
7432;SDS011;32233;49.500;7.764;2023-02-13T08:11:38;28.17;;;17.40;;
7432;SDS011;32233;49.500;7.764;2023-02-13T08:14:21;29.10;;;18.23;;
7432;SDS011;32233;49.500;7.764;2023-02-13T08:16:49;28.70;;;17.13;;
7432;SDS011;32233;49.500;7.764;2023-02-13T08:19:16;25.83;;;16.13;;
7432;SDS011;32233;49.500;7.764;2023-02-13T08:21:44;28.13;;;16.83;;
7432;SDS011;32233;49.500;7.764;2023-02-13T08:24:11;30.37;;;17.43;;
7432;SDS011;32233;49.500;7.764;2023-02-13T08:26:38;30.43;;;17.47;;
7432;SDS011;32233;49.500;7.764;2023-02-13T08:29:05;31.93;;;18.47;;
7432;SDS011;32233;49.500;7.764;2023-02-13T08:31:32;28.17;;;17.13;;
7432;SDS011;32233;49.500;7.764;2023-02-13T08:33:59;30.50;;;16.80;;
7432;SDS011;32233;49.500;7.764;2023-02-13T08:36:25;31.57;;;17.20;;
7432;SDS011;32233;49.500;7.764;2023-02-13T08:38:52;30.47;;;17.73;;
7432;SDS011;32233;49.500;7.764;2023-02-13T08:41:19;31.17;;;17.47;;
7432;SDS011;32233;49.500;7.764;2023-02-13T08:43:48;28.77;;;15.97;;
7432;SDS011;32233;49.500;7.764;2023-02-13T08:46:15;31.67;;;18.20;;
7432;SDS011;32233;49.500;7.764;2023-02-13T08:48:43;33.20;;;19.60;;
7432;SDS011;32233;49.500;7.764;2023-02-13T08:51:10;30.40;;;18.47;;
7432;SDS011;32233;49.500;7.764;2023-02-13T08:53:38;31.20;;;17.97;;
7432;SDS011;32233;49.500;7.764;2023-02-13T08:56:05;29.70;;;18.23;;
7432;SDS011;32233;49.500;7.764;2023-02-13T08:58:32;26.87;;;17.07;;
7432;SDS011;32233;49.500;7.764;2023-02-13T09:00:58;24.63;;;15.27;;
7432;SDS011;32233;49.500;7.764;2023-02-13T09:03:25;25.80;;;16.20;;
7432;SDS011;32233;49.500;7.764;2023-02-13T09:05:52;27.73;;;16.30;;
7432;SDS011;32233;49.500;7.764;2023-02-13T09:08:18;23.30;;;14.70;;
7432;SDS011;32233;49.500;7.764;2023-02-13T09:10:45;22.37;;;14.43;;
7432;SDS011;32233;49.500;7.764;2023-02-13T09:13:11;20.97;;;13.90;;
7432;SDS011;32233;49.500;7.764;2023-02-13T09:15:38;24.90;;;14.23;;
7432;SDS011;32233;49.500;7.764;2023-02-13T09:18:08;20.57;;;12.80;;
7432;SDS011;32233;49.500;7.764;2023-02-13T09:20:35;24.27;;;13.83;;
7432;SDS011;32233;49.500;7.764;2023-02-13T09:23:01;25.20;;;13.73;;
7432;SDS011;32233;49.500;7.764;2023-02-13T09:25:28;24.47;;;14.00;;
7432;SDS011;32233;49.500;7.764;2023-02-13T09:27:54;24.80;;;14.07;;
7432;SDS011;32233;49.500;7.764;2023-02-13T09:30:21;22.77;;;13.30;;
7432;SDS011;32233;49.500;7.764;2023-02-13T09:32:51;26.10;;;14.97;;
7432;SDS011;32233;49.500;7.764;2023-02-13T09:35:19;26.03;;;14.17;;
7432;SDS011;32233;49.500;7.764;2023-02-13T09:37:46;22.70;;;13.67;;
7432;SDS011;32233;49.500;7.764;2023-02-13T09:40:17;22.30;;;13.97;;
7432;SDS011;32233;49.500;7.764;2023-02-13T09:42:46;24.50;;;14.50;;
7432;SDS011;32233;49.500;7.764;2023-02-13T09:45:14;24.83;;;13.63;;
7432;SDS011;32233;49.500;7.764;2023-02-13T09:47:45;22.33;;;14.00;;
7432;SDS011;32233;49.500;7.764;2023-02-13T09:52:44;17.70;;;11.97;;
7432;SDS011;32233;49.500;7.764;2023-02-13T09:57:55;17.93;;;12.03;;
7432;SDS011;32233;49.500;7.764;2023-02-13T10:00:49;15.57;;;11.17;;
7432;SDS011;32233;49.500;7.764;2023-02-13T10:06:03;15.03;;;10.80;;
7432;SDS011;32233;49.500;7.764;2023-02-13T10:11:45;17.57;;;11.13;;
7432;SDS011;32233;49.500;7.764;2023-02-13T10:14:16;16.13;;;10.97;;
7432;SDS011;32233;49.500;7.764;2023-02-13T10:16:59;15.37;;;10.77;;
7432;SDS011;32233;49.500;7.764;2023-02-13T10:19:38;15.93;;;11.13;;
7432;SDS011;32233;49.500;7.764;2023-02-13T10:22:18;15.77;;;10.60;;
7432;SDS011;32233;49.500;7.764;2023-02-13T10:27:45;17.17;;;11.73;;
7432;SDS011;32233;49.500;7.764;2023-02-13T10:30:34;15.87;;;11.13;;
7432;SDS011;32233;49.500;7.764;2023-02-13T10:35:44;16.33;;;10.97;;
7432;SDS011;32233;49.500;7.764;2023-02-13T10:38:22;15.33;;;10.80;;
7432;SDS011;32233;49.500;7.764;2023-02-13T10:52:03;12.83;;;9.73;;
7432;SDS011;32233;49.500;7.764;2023-02-13T11:02:27;13.40;;;9.60;;
7432;SDS011;32233;49.500;7.764;2023-02-13T11:04:59;12.17;;;9.63;;
7432;SDS011;32233;49.500;7.764;2023-02-13T11:07:32;15.43;;;10.17;;
7432;SDS011;32233;49.500;7.764;2023-02-13T11:10:03;12.73;;;9.53;;
7432;SDS011;32233;49.500;7.764;2023-02-13T11:12:38;13.23;;;9.33;;
7432;SDS011;32233;49.500;7.764;2023-02-13T11:15:06;11.43;;;8.67;;
7432;SDS011;32233;49.500;7.764;2023-02-13T11:17:44;11.57;;;8.30;;
7432;SDS011;32233;49.500;7.764;2023-02-13T11:23:25;11.57;;;8.63;;
7432;SDS011;32233;49.500;7.764;2023-02-13T11:26:04;12.27;;;8.33;;
7432;SDS011;32233;49.500;7.764;2023-02-13T11:31:28;13.03;;;8.90;;
7432;SDS011;32233;49.500;7.764;2023-02-13T11:33:57;11.73;;;8.83;;
7432;SDS011;32233;49.500;7.764;2023-02-13T11:36:28;11.43;;;8.43;;
7432;SDS011;32233;49.500;7.764;2023-02-13T11:38:57;12.27;;;8.10;;
7432;SDS011;32233;49.500;7.764;2023-02-13T11:41:43;10.33;;;7.93;;
7432;SDS011;32233;49.500;7.764;2023-02-13T11:46:50;11.57;;;8.10;;
7432;SDS011;32233;49.500;7.764;2023-02-13T11:49:19;8.67;;;7.13;;
7432;SDS011;32233;49.500;7.764;2023-02-13T11:54:21;10.17;;;7.43;;
7432;SDS011;32233;49.500;7.764;2023-02-13T11:56:59;10.13;;;7.53;;
7432;SDS011;32233;49.500;7.764;2023-02-13T11:59:41;9.03;;;7.50;;
7432;SDS011;32233;49.500;7.764;2023-02-13T12:02:44;8.70;;;7.27;;
7432;SDS011;32233;49.500;7.764;2023-02-13T12:05:19;8.00;;;7.20;;
7432;SDS011;32233;49.500;7.764;2023-02-13T12:07:48;9.40;;;7.50;;
7432;SDS011;32233;49.500;7.764;2023-02-13T12:10:21;10.47;;;7.90;;
7432;SDS011;32233;49.500;7.764;2023-02-13T12:12:53;10.03;;;7.33;;
7432;SDS011;32233;49.500;7.764;2023-02-13T12:15:29;9.57;;;6.87;;
7432;SDS011;32233;49.500;7.764;2023-02-13T12:18:05;8.57;;;6.97;;
7432;SDS011;32233;49.500;7.764;2023-02-13T12:23:24;7.40;;;6.33;;
7432;SDS011;32233;49.500;7.764;2023-02-13T12:26:04;9.07;;;7.20;;
7432;SDS011;32233;49.500;7.764;2023-02-13T12:28:51;10.17;;;7.40;;
7432;SDS011;32233;49.500;7.764;2023-02-13T12:37:03;8.00;;;6.50;;
7432;SDS011;32233;49.500;7.764;2023-02-13T12:45:01;8.73;;;6.57;;
7432;SDS011;32233;49.500;7.764;2023-02-13T12:50:30;7.63;;;6.20;;
7432;SDS011;32233;49.500;7.764;2023-02-13T13:13:14;7.70;;;5.87;;
7432;SDS011;32233;49.500;7.764;2023-02-13T13:15:52;7.33;;;5.60;;
7432;SDS011;32233;49.500;7.764;2023-02-13T13:18:30;6.43;;;5.60;;
7432;SDS011;32233;49.500;7.764;2023-02-13T13:26:46;6.87;;;5.73;;
7432;SDS011;32233;49.500;7.764;2023-02-13T13:29:18;6.40;;;5.23;;
7432;SDS011;32233;49.500;7.764;2023-02-13T13:31:53;7.63;;;5.93;;
7432;SDS011;32233;49.500;7.764;2023-02-13T13:34:23;6.23;;;5.20;;
7432;SDS011;32233;49.500;7.764;2023-02-13T13:42:39;6.53;;;4.53;;
7432;SDS011;32233;49.500;7.764;2023-02-13T13:48:42;7.50;;;5.23;;
7432;SDS011;32233;49.500;7.764;2023-02-13T13:51:25;6.07;;;4.90;;
7432;SDS011;32233;49.500;7.764;2023-02-13T14:02:47;6.63;;;5.27;;
7432;SDS011;32233;49.500;7.764;2023-02-13T14:05:01;6.70;;;5.43;;
7432;SDS011;32233;49.500;7.764;2023-02-13T14:07:37;9.37;;;5.50;;
7432;SDS011;32233;49.500;7.764;2023-02-13T14:12:47;5.27;;;4.77;;
7432;SDS011;32233;49.500;7.764;2023-02-13T14:18:21;6.33;;;4.40;;
7432;SDS011;32233;49.500;7.764;2023-02-13T14:20:52;5.70;;;4.10;;
7432;SDS011;32233;49.500;7.764;2023-02-13T14:23:35;5.93;;;4.53;;
7432;SDS011;32233;49.500;7.764;2023-02-13T14:28:42;5.83;;;4.43;;
7432;SDS011;32233;49.500;7.764;2023-02-13T14:33:54;5.67;;;4.17;;
7432;SDS011;32233;49.500;7.764;2023-02-13T14:36:22;4.47;;;3.27;;
7432;SDS011;32233;49.500;7.764;2023-02-13T14:39:21;4.53;;;2.90;;
7432;SDS011;32233;49.500;7.764;2023-02-13T14:47:04;5.43;;;3.97;;
7432;SDS011;32233;49.500;7.764;2023-02-13T14:49:45;4.43;;;3.10;;
7432;SDS011;32233;49.500;7.764;2023-02-13T14:52:18;4.53;;;3.10;;
7432;SDS011;32233;49.500;7.764;2023-02-13T14:54:53;3.47;;;2.60;;
7432;SDS011;32233;49.500;7.764;2023-02-13T14:57:27;1.90;;;1.70;;
7432;SDS011;32233;49.500;7.764;2023-02-13T14:59:58;2.30;;;2.10;;
7432;SDS011;32233;49.500;7.764;2023-02-13T15:02:30;2.60;;;2.10;;
7432;SDS011;32233;49.500;7.764;2023-02-13T15:05:01;2.07;;;1.87;;
7432;SDS011;32233;49.500;7.764;2023-02-13T15:07:39;2.47;;;1.70;;
7432;SDS011;32233;49.500;7.764;2023-02-13T15:10:41;2.93;;;1.87;;
7432;SDS011;32233;49.500;7.764;2023-02-13T15:13:14;1.80;;;1.70;;
7432;SDS011;32233;49.500;7.764;2023-02-13T15:15:50;2.00;;;1.80;;
7432;SDS011;32233;49.500;7.764;2023-02-13T15:18:24;2.43;;;1.90;;
7432;SDS011;32233;49.500;7.764;2023-02-13T15:20:55;2.37;;;1.57;;
7432;SDS011;32233;49.500;7.764;2023-02-13T15:23:27;2.10;;;1.90;;
7432;SDS011;32233;49.500;7.764;2023-02-13T15:25:59;2.73;;;1.73;;
7432;SDS011;32233;49.500;7.764;2023-02-13T15:28:28;2.80;;;1.53;;
7432;SDS011;32233;49.500;7.764;2023-02-13T15:31:00;1.73;;;1.63;;
7432;SDS011;32233;49.500;7.764;2023-02-13T15:33:32;1.60;;;1.50;;
7432;SDS011;32233;49.500;7.764;2023-02-13T15:36:04;2.80;;;1.47;;
7432;SDS011;32233;49.500;7.764;2023-02-13T15:38:32;2.63;;;1.93;;
7432;SDS011;32233;49.500;7.764;2023-02-13T15:43:31;3.90;;;2.00;;
7432;SDS011;32233;49.500;7.764;2023-02-13T15:46:04;1.90;;;1.40;;
7432;SDS011;32233;49.500;7.764;2023-02-13T15:48:33;2.87;;;1.70;;
7432;SDS011;32233;49.500;7.764;2023-02-13T15:51:00;2.47;;;1.63;;
7432;SDS011;32233;49.500;7.764;2023-02-13T15:53:28;2.60;;;1.80;;
7432;SDS011;32233;49.500;7.764;2023-02-13T15:56:00;2.20;;;1.70;;
7432;SDS011;32233;49.500;7.764;2023-02-13T15:58:29;2.00;;;1.77;;
7432;SDS011;32233;49.500;7.764;2023-02-13T16:00:58;1.77;;;1.67;;
7432;SDS011;32233;49.500;7.764;2023-02-13T16:03:28;1.90;;;1.70;;
7432;SDS011;32233;49.500;7.764;2023-02-13T16:05:56;2.50;;;1.87;;
7432;SDS011;32233;49.500;7.764;2023-02-13T16:08:27;1.93;;;1.83;;
7432;SDS011;32233;49.500;7.764;2023-02-13T16:11:16;1.70;;;1.60;;
7432;SDS011;32233;49.500;7.764;2023-02-13T16:20:02;2.23;;;1.50;;
7432;SDS011;32233;49.500;7.764;2023-02-13T16:27:43;5.57;;;3.77;;
7432;SDS011;32233;49.500;7.764;2023-02-13T16:30:22;5.80;;;4.03;;
7432;SDS011;32233;49.500;7.764;2023-02-13T16:32:50;5.33;;;4.17;;
7432;SDS011;32233;49.500;7.764;2023-02-13T16:37:48;7.87;;;6.10;;
7432;SDS011;32233;49.500;7.764;2023-02-13T16:48:46;11.60;;;8.30;;
7432;SDS011;32233;49.500;7.764;2023-02-13T16:51:13;9.17;;;7.27;;
7432;SDS011;32233;49.500;7.764;2023-02-13T16:53:41;11.00;;;7.57;;
7432;SDS011;32233;49.500;7.764;2023-02-13T16:56:08;10.10;;;7.53;;
7432;SDS011;32233;49.500;7.764;2023-02-13T16:58:36;12.47;;;7.87;;
7432;SDS011;32233;49.500;7.764;2023-02-13T17:01:03;10.00;;;7.43;;
7432;SDS011;32233;49.500;7.764;2023-02-13T17:03:30;9.83;;;6.50;;
7432;SDS011;32233;49.500;7.764;2023-02-13T17:06:00;11.10;;;7.47;;
7432;SDS011;32233;49.500;7.764;2023-02-13T17:08:29;9.47;;;6.90;;
7432;SDS011;32233;49.500;7.764;2023-02-13T17:11:00;12.43;;;7.93;;
7432;SDS011;32233;49.500;7.764;2023-02-13T17:13:29;10.77;;;7.33;;
7432;SDS011;32233;49.500;7.764;2023-02-13T17:15:56;12.90;;;7.73;;
7432;SDS011;32233;49.500;7.764;2023-02-13T17:18:23;11.40;;;8.27;;
7432;SDS011;32233;49.500;7.764;2023-02-13T17:20:50;12.63;;;7.93;;
7432;SDS011;32233;49.500;7.764;2023-02-13T17:23:17;10.40;;;7.80;;
7432;SDS011;32233;49.500;7.764;2023-02-13T17:25:47;11.67;;;8.23;;
7432;SDS011;32233;49.500;7.764;2023-02-13T17:28:16;10.47;;;7.77;;
7432;SDS011;32233;49.500;7.764;2023-02-13T17:30:47;11.30;;;8.00;;
7432;SDS011;32233;49.500;7.764;2023-02-13T17:33:20;13.27;;;9.00;;
7432;SDS011;32233;49.500;7.764;2023-02-13T17:35:48;13.93;;;8.53;;
7432;SDS011;32233;49.500;7.764;2023-02-13T17:38:15;13.20;;;8.23;;
7432;SDS011;32233;49.500;7.764;2023-02-13T17:40:42;11.63;;;8.23;;
7432;SDS011;32233;49.500;7.764;2023-02-13T17:43:10;13.43;;;8.23;;
7432;SDS011;32233;49.500;7.764;2023-02-13T17:45:37;11.77;;;7.73;;
7432;SDS011;32233;49.500;7.764;2023-02-13T17:48:04;16.93;;;9.97;;
7432;SDS011;32233;49.500;7.764;2023-02-13T17:50:31;19.77;;;12.60;;
7432;SDS011;32233;49.500;7.764;2023-02-13T17:53:03;18.20;;;12.20;;
7432;SDS011;32233;49.500;7.764;2023-02-13T17:55:32;15.30;;;10.97;;
7432;SDS011;32233;49.500;7.764;2023-02-13T17:57:59;21.67;;;13.97;;
7432;SDS011;32233;49.500;7.764;2023-02-13T18:00:28;18.40;;;12.03;;
7432;SDS011;32233;49.500;7.764;2023-02-13T18:02:56;18.77;;;12.13;;
7432;SDS011;32233;49.500;7.764;2023-02-13T18:05:24;21.80;;;13.93;;
7432;SDS011;32233;49.500;7.764;2023-02-13T18:07:52;15.83;;;11.13;;
7432;SDS011;32233;49.500;7.764;2023-02-13T18:10:26;13.53;;;9.47;;
7432;SDS011;32233;49.500;7.764;2023-02-13T18:12:54;14.83;;;9.20;;
7432;SDS011;32233;49.500;7.764;2023-02-13T18:15:22;13.00;;;9.40;;
7432;SDS011;32233;49.500;7.764;2023-02-13T18:17:49;16.27;;;11.43;;
7432;SDS011;32233;49.500;7.764;2023-02-13T18:20:17;14.00;;;9.97;;